Hlavní strana
METAR-TAF:

METAR-TAF

Letiště :

Passo Rolle, Itálie

zeměpisná šířka: 46-18N, zeměpisná délka: 011-47E, výška: 2004 m

Aktuální stav počasí

Zpráva byla vytvořena před 1 hodinou a 2 minutami, v 06:55 UTC
Severozápadní vítr 5 kt
Teplota 10°C
Vlhkost vzduchu 82%
Tlak 1027 hPa
Viditelnost 10 km a více
Skoro jasno ve výšce 3000 ft

METAR: LIVR 260655Z 31005KT 9999 FEW030 10/07 Q1027 RMK FEW MON LIB VIS MIN 9999

Čas: 09:57 (07:57 UTC)


TAF: chybějící

Stav a předpovědi počasí z více než 4 000 letišť (zprávy METAR a TAF).

Červené a žluté tečky na mapě představují dostupné meteorologické stanice.

Když kurzor umístíte na tečku, zobrazí se název stanice.

Pak kliknutím zobrazíte stav a předpověď počasí.

Chcete-li změnit mapu, kliknutím na zelené tlačítko se znaménkem +mapu přiblížíte, kliknutím na zelené tlačítko se znaménkem – mapu oddálíte a kliknutím na zelené šipky přejdete na sousední mapy.


METAR-TAF: